createdAt,value
2022-08-30T00:01:27.698Z,20.52
2022-08-30T00:03:58.504Z,20.54
2022-08-30T00:06:27.357Z,20.54
2022-08-30T00:08:57.338Z,20.55
2022-08-30T00:11:27.858Z,20.52
2022-08-30T00:13:56.812Z,20.52
2022-08-30T00:16:25.518Z,20.52
2022-08-30T00:18:52.515Z,20.50
2022-08-30T00:21:19.730Z,20.46
2022-08-30T00:23:46.799Z,20.41
2022-08-30T00:26:13.740Z,20.37
2022-08-30T00:28:42.999Z,20.37
2022-08-30T00:31:10.634Z,20.37
2022-08-30T00:33:42.498Z,20.35
2022-08-30T00:36:09.653Z,20.39
2022-08-30T00:38:36.795Z,20.39
2022-08-30T00:41:03.817Z,20.38
2022-08-30T00:43:34.182Z,20.36
2022-08-30T00:46:04.853Z,20.40
2022-08-30T00:48:33.693Z,20.40
2022-08-30T00:51:07.620Z,20.39
2022-08-30T00:53:39.111Z,20.42
2022-08-30T00:56:07.292Z,20.38
2022-08-30T00:58:37.850Z,20.37
2022-08-30T01:01:07.139Z,20.34
2022-08-30T01:03:35.781Z,20.30
2022-08-30T01:06:04.942Z,20.27
2022-08-30T01:08:32.151Z,20.31
2022-08-30T01:11:00.350Z,20.31
2022-08-30T01:13:29.769Z,20.35
2022-08-30T01:15:57.172Z,20.39
2022-08-30T01:18:25.436Z,20.40
2022-08-30T01:21:15.965Z,20.41
2022-08-30T01:23:45.882Z,20.42
2022-08-30T01:26:15.904Z,20.44
2022-08-30T01:28:49.829Z,20.45
2022-08-30T01:31:17.124Z,20.46
2022-08-30T01:33:44.267Z,20.48
2022-08-30T01:36:14.380Z,20.48
2022-08-30T01:38:53.796Z,20.45
2022-08-30T01:41:27.146Z,20.39
2022-08-30T01:43:57.345Z,20.41
2022-08-30T01:46:28.367Z,20.37
2022-08-30T01:48:58.021Z,20.37
2022-08-30T01:51:28.058Z,20.37
2022-08-30T01:53:55.471Z,20.38
2022-08-30T01:56:26.433Z,20.39
2022-08-30T01:58:54.272Z,20.40
2022-08-30T02:01:26.090Z,20.34
2022-08-30T02:03:55.906Z,20.32
2022-08-30T02:06:23.928Z,20.27
2022-08-30T02:08:51.158Z,20.21
2022-08-30T02:11:18.224Z,20.21
2022-08-30T02:13:46.391Z,20.19
2022-08-30T02:16:18.147Z,20.17
2022-08-30T02:18:46.270Z,20.14
2022-08-30T02:21:13.475Z,20.06
2022-08-30T02:23:41.275Z,20.02
2022-08-30T02:26:09.379Z,19.90
2022-08-30T02:28:49.506Z,19.87
2022-08-30T02:31:20.385Z,19.86
2022-08-30T02:33:50.505Z,19.85
2022-08-30T02:36:18.774Z,19.81
2022-08-30T02:38:46.412Z,19.78
2022-08-30T02:41:14.089Z,19.73
2022-08-30T02:43:41.385Z,19.72
2022-08-30T02:46:08.547Z,19.70
2022-08-30T02:48:36.961Z,19.71
2022-08-30T02:51:11.554Z,19.72
2022-08-30T02:53:40.276Z,19.72
2022-08-30T02:56:08.618Z,19.73
2022-08-30T02:58:36.517Z,19.70
2022-08-30T03:01:04.175Z,19.72
2022-08-30T03:03:32.041Z,19.70
2022-08-30T03:05:59.318Z,19.73
2022-08-30T03:08:26.304Z,19.80
2022-08-30T03:10:53.330Z,19.86
2022-08-30T03:13:20.317Z,19.90
2022-08-30T03:15:50.514Z,19.93
2022-08-30T03:18:19.462Z,20.01
2022-08-30T03:20:54.425Z,20.10
2022-08-30T03:23:24.271Z,20.19
2022-08-30T03:25:52.137Z,20.27
2022-08-30T03:28:19.476Z,20.34
2022-08-30T03:30:48.780Z,20.42
2022-08-30T03:33:15.926Z,20.48
2022-08-30T03:35:48.207Z,20.63
2022-08-30T03:38:15.346Z,20.81
2022-08-30T03:40:42.422Z,21.29
2022-08-30T03:43:09.582Z,21.82
2022-08-30T03:45:36.767Z,22.40
2022-08-30T03:48:04.334Z,22.90
2022-08-30T03:50:31.892Z,23.34
2022-08-30T03:53:02.059Z,23.74
2022-08-30T03:55:30.609Z,24.22
2022-08-30T03:57:58.154Z,24.48
2022-08-30T04:00:25.933Z,24.83
2022-08-30T04:02:52.885Z,24.99
2022-08-30T04:05:21.276Z,25.19
2022-08-30T04:07:48.289Z,25.51
2022-08-30T04:10:15.436Z,25.87
2022-08-30T04:12:46.164Z,26.11
2022-08-30T04:15:18.285Z,26.35
2022-08-30T04:17:45.617Z,26.57
2022-08-30T04:20:12.921Z,26.82
2022-08-30T04:22:40.084Z,26.99
2022-08-30T04:25:07.951Z,27.28
2022-08-30T04:27:44.116Z,27.73
2022-08-30T04:30:12.545Z,28.38
2022-08-30T04:32:39.531Z,28.66
2022-08-30T04:35:07.127Z,29.28
2022-08-30T04:37:34.076Z,29.80
2022-08-30T04:40:01.441Z,30.23
2022-08-30T04:42:32.910Z,30.51
2022-08-30T04:45:03.909Z,30.77
2022-08-30T04:47:31.384Z,31.17
2022-08-30T04:49:58.555Z,31.49
2022-08-30T04:52:25.764Z,32.03
2022-08-30T04:54:56.560Z,32.56
2022-08-30T04:57:25.034Z,33.01
2022-08-30T04:59:53.200Z,33.35
2022-08-30T05:02:23.883Z,33.83
2022-08-30T05:05:12.284Z,34.09
2022-08-30T05:07:41.422Z,34.48
2022-08-30T05:10:11.371Z,34.67
2022-08-30T05:12:39.846Z,34.72
2022-08-30T05:15:08.368Z,34.92
2022-08-30T05:17:37.328Z,35.28
2022-08-30T05:20:10.957Z,35.72
2022-08-30T05:22:40.022Z,36.07
2022-08-30T05:25:08.405Z,36.38
2022-08-30T05:27:37.192Z,36.58
2022-08-30T05:30:06.392Z,37.01
2022-08-30T05:32:33.647Z,37.38
2022-08-30T05:35:00.682Z,37.80
2022-08-30T05:37:35.825Z,37.99
2022-08-30T05:40:05.424Z,38.41
2022-08-30T05:42:45.948Z,38.78
2022-08-30T05:45:14.762Z,39.15
2022-08-30T05:47:42.054Z,39.50
2022-08-30T05:50:10.961Z,39.83
2022-08-30T05:52:40.851Z,40.08
2022-08-30T05:55:09.278Z,40.24
2022-08-30T05:57:43.624Z,40.56
2022-08-30T06:00:17.733Z,40.76
2022-08-30T06:02:45.426Z,41.10
2022-08-30T06:05:15.059Z,41.38
2022-08-30T06:07:43.677Z,41.56
2022-08-30T06:10:12.607Z,41.85
2022-08-30T06:12:39.984Z,42.02
2022-08-30T06:15:08.181Z,42.19
2022-08-30T06:17:35.526Z,42.47
2022-08-30T06:20:02.776Z,42.72
2022-08-30T06:22:30.899Z,42.95
2022-08-30T06:25:00.156Z,43.10
2022-08-30T06:27:27.307Z,43.41
2022-08-30T06:29:54.802Z,43.70
2022-08-30T06:32:22.601Z,43.92
2022-08-30T06:34:50.102Z,44.15
2022-08-30T06:37:30.116Z,44.49
2022-08-30T06:39:58.975Z,44.54
2022-08-30T06:42:32.097Z,44.30
2022-08-30T06:45:02.899Z,44.96
2022-08-30T06:47:38.146Z,45.16
2022-08-30T06:50:05.696Z,45.62
2022-08-30T06:52:32.653Z,45.28
2022-08-30T06:54:59.848Z,44.85
2022-08-30T06:57:27.174Z,44.95
2022-08-30T06:59:58.132Z,44.89
2022-08-30T07:02:26.272Z,44.82
2022-08-30T07:04:54.323Z,45.40
2022-08-30T07:07:21.876Z,46.00
2022-08-30T07:09:50.555Z,46.13
2022-08-30T07:12:17.760Z,45.06
2022-08-30T07:14:49.089Z,44.03
2022-08-30T07:17:40.353Z,43.20
2022-08-30T07:20:10.627Z,41.99
2022-08-30T07:22:38.959Z,40.35
2022-08-30T07:25:09.193Z,39.09
2022-08-30T07:27:37.680Z,38.29
2022-08-30T07:30:07.131Z,38.88
2022-08-30T07:32:38.519Z,39.80
2022-08-30T07:35:41.806Z,41.07
2022-08-30T07:38:25.898Z,41.12
2022-08-30T07:41:01.725Z,40.98
2022-08-30T07:43:37.994Z,41.47
2022-08-30T07:46:11.917Z,41.58
2022-08-30T07:48:44.293Z,40.93
2022-08-30T07:51:24.475Z,40.88
2022-08-30T07:53:56.493Z,40.68
2022-08-30T07:56:28.822Z,39.46
2022-08-30T07:59:01.183Z,39.36
2022-08-30T08:01:34.125Z,39.60
2022-08-30T08:04:01.685Z,39.65
2022-08-30T08:06:34.931Z,40.02
2022-08-30T08:09:02.755Z,40.45
2022-08-30T08:11:34.171Z,40.76
2022-08-30T08:14:02.707Z,41.28
2022-08-30T08:16:32.043Z,42.28
2022-08-30T08:18:59.276Z,42.60
2022-08-30T08:21:26.558Z,42.39
2022-08-30T08:23:56.232Z,42.38
2022-08-30T08:26:23.556Z,42.43
2022-08-30T08:28:50.888Z,42.44
2022-08-30T08:31:25.541Z,42.67
2022-08-30T08:36:31.483Z,43.05
2022-08-30T08:38:59.227Z,43.35
2022-08-30T08:41:57.826Z,43.00
2022-08-30T08:44:43.456Z,43.41
2022-08-30T08:47:40.069Z,43.43
2022-08-30T08:50:21.572Z,42.96
2022-08-30T08:53:46.224Z,42.36
2022-08-30T08:56:17.067Z,42.07
2022-08-30T08:58:51.690Z,41.86
2022-08-30T09:01:25.526Z,42.38
2022-08-30T09:03:58.615Z,42.70
2022-08-30T09:06:37.651Z,42.75
2022-08-30T09:09:12.735Z,42.77
2022-08-30T09:11:44.972Z,42.77
2022-08-30T09:14:23.013Z,43.15
2022-08-30T09:17:02.641Z,43.42
2022-08-30T09:19:48.382Z,42.69
2022-08-30T09:22:46.763Z,42.38
2022-08-30T09:25:14.330Z,41.87
2022-08-30T09:27:42.621Z,41.75
2022-08-30T09:30:21.195Z,41.88
2022-08-30T09:32:55.292Z,41.70
2022-08-30T09:35:50.900Z,41.41
2022-08-30T09:38:29.021Z,40.63
2022-08-30T09:41:00.891Z,38.87
2022-08-30T09:43:34.988Z,37.76
2022-08-30T09:46:02.233Z,37.44
2022-08-30T09:48:45.685Z,37.51
2022-08-30T09:51:18.576Z,37.21
2022-08-30T09:56:59.152Z,36.52
2022-08-30T09:59:51.915Z,36.23
2022-08-30T10:02:24.603Z,36.24
2022-08-30T10:05:23.420Z,36.20
2022-08-30T10:08:19.499Z,36.15
2022-08-30T10:10:50.662Z,36.09
2022-08-30T10:13:33.614Z,36.09
2022-08-30T10:16:25.689Z,36.23
2022-08-30T10:19:29.706Z,36.30
2022-08-30T10:22:22.607Z,36.28
2022-08-30T10:25:10.678Z,35.73
2022-08-30T10:27:52.295Z,35.62
2022-08-30T10:30:20.198Z,35.06
2022-08-30T10:33:02.411Z,34.61
2022-08-30T10:35:38.845Z,34.54
2022-08-30T10:38:21.139Z,34.32
2022-08-30T10:41:13.415Z,33.97
2022-08-30T10:44:01.485Z,33.63
2022-08-30T10:49:22.796Z,33.42
2022-08-30T10:52:32.705Z,33.60
2022-08-30T10:55:04.998Z,33.54
2022-08-30T10:57:33.180Z,33.59
2022-08-30T11:00:07.655Z,33.66
2022-08-30T11:03:04.532Z,33.67
2022-08-30T11:05:31.650Z,33.66
2022-08-30T11:08:22.996Z,33.46
2022-08-30T11:11:31.523Z,33.32
2022-08-30T11:14:05.701Z,32.91
2022-08-30T11:16:54.275Z,32.77
2022-08-30T11:19:41.115Z,32.58
2022-08-30T11:22:21.816Z,32.45
2022-08-30T11:25:09.850Z,32.27
2022-08-30T11:27:47.087Z,32.19
2022-08-30T11:30:24.609Z,32.09
2022-08-30T11:33:03.279Z,31.90
2022-08-30T11:35:48.207Z,31.64
2022-08-30T11:38:30.847Z,31.36
2022-08-30T11:41:00.692Z,31.05
2022-08-30T11:43:39.971Z,30.95
2022-08-30T11:46:15.923Z,30.91
2022-08-30T11:49:03.043Z,30.94
2022-08-30T11:51:40.597Z,30.84
2022-08-30T11:54:53.515Z,30.66
2022-08-30T11:57:50.115Z,30.56
2022-08-30T12:00:41.413Z,30.60
2022-08-30T12:03:14.645Z,30.54
2022-08-30T12:05:45.700Z,30.44
2022-08-30T12:08:27.862Z,30.43
2022-08-30T12:11:02.435Z,30.41
2022-08-30T12:13:37.197Z,30.38
2022-08-30T12:16:19.558Z,30.32
2022-08-30T12:19:16.265Z,30.26
2022-08-30T12:22:00.324Z,30.19
2022-08-30T12:24:40.325Z,30.06
2022-08-30T12:27:32.798Z,30.05
2022-08-30T12:30:08.558Z,30.03
2022-08-30T12:32:46.046Z,30.00
2022-08-30T12:35:23.773Z,29.97
2022-08-30T12:38:06.825Z,29.99
2022-08-30T12:40:37.353Z,29.98
2022-08-30T12:43:57.603Z,29.93
2022-08-30T12:46:25.481Z,29.84
2022-08-30T12:48:52.829Z,29.82
2022-08-30T12:51:41.417Z,29.77
2022-08-30T12:54:21.998Z,29.75
2022-08-30T12:56:57.240Z,29.74
2022-08-30T12:59:56.868Z,29.69
2022-08-30T13:02:44.281Z,29.69
2022-08-30T13:05:50.045Z,29.68
2022-08-30T13:08:36.903Z,29.67
2022-08-30T13:11:11.534Z,29.59
2022-08-30T13:13:51.898Z,29.49
2022-08-30T13:16:29.248Z,29.37
2022-08-30T13:19:36.814Z,29.23
2022-08-30T13:22:05.329Z,29.07
2022-08-30T13:24:32.351Z,28.92
2022-08-30T13:27:04.113Z,28.78
2022-08-30T13:29:32.018Z,28.68
2022-08-30T13:31:59.389Z,28.63
2022-08-30T13:34:26.875Z,28.54
2022-08-30T13:36:57.464Z,28.46
2022-08-30T13:39:25.147Z,28.52
2022-08-30T13:41:53.072Z,28.55
2022-08-30T13:44:20.500Z,28.59
2022-08-30T13:46:55.830Z,28.69
2022-08-30T13:49:45.254Z,28.82
2022-08-30T13:52:22.833Z,28.90
2022-08-30T13:54:56.083Z,28.98
2022-08-30T14:00:18.029Z,28.89
2022-08-30T14:02:55.398Z,28.84
2022-08-30T14:11:06.228Z,28.66
2022-08-30T14:13:33.383Z,28.65
2022-08-30T14:16:31.563Z,28.65
2022-08-30T14:19:00.488Z,28.67
2022-08-30T14:21:28.312Z,28.67
2022-08-30T14:26:53.589Z,28.73
2022-08-30T14:29:26.374Z,28.72
2022-08-30T14:32:01.965Z,28.66
2022-08-30T14:34:31.655Z,28.53
2022-08-30T14:36:59.990Z,28.55
2022-08-30T14:39:27.288Z,28.40
2022-08-30T14:41:55.774Z,28.28
2022-08-30T14:44:25.156Z,28.22
2022-08-30T14:46:52.319Z,28.10
2022-08-30T14:49:21.118Z,28.01
2022-08-30T14:51:55.857Z,27.89
2022-08-30T14:54:34.831Z,27.85
2022-08-30T14:57:02.010Z,27.77
2022-08-30T14:59:30.870Z,27.65
2022-08-30T15:02:02.286Z,27.59
2022-08-30T15:04:30.620Z,27.50
2022-08-30T15:07:01.043Z,27.36
2022-08-30T15:09:38.576Z,27.38
2022-08-30T15:12:09.296Z,27.33
2022-08-30T15:14:37.933Z,27.23
2022-08-30T15:17:08.452Z,27.20
2022-08-30T15:19:39.939Z,27.10
2022-08-30T15:22:10.534Z,27.01
2022-08-30T15:24:37.912Z,26.90
2022-08-30T15:27:10.533Z,26.84
2022-08-30T15:29:40.022Z,26.76
2022-08-30T15:32:07.791Z,26.67
2022-08-30T15:34:34.897Z,26.58
2022-08-30T15:37:02.335Z,26.52
2022-08-30T15:39:30.578Z,26.46
2022-08-30T15:42:06.874Z,26.38
2022-08-30T15:44:34.458Z,26.33
2022-08-30T15:47:01.915Z,26.30
2022-08-30T15:49:29.476Z,26.25
2022-08-30T15:52:04.167Z,26.20
2022-08-30T15:54:31.949Z,26.16
2022-08-30T15:56:59.568Z,26.16
2022-08-30T15:59:28.848Z,26.13
2022-08-30T16:01:56.421Z,26.07
2022-08-30T16:04:25.725Z,26.02
2022-08-30T16:06:53.509Z,25.96
2022-08-30T16:09:21.553Z,25.92
2022-08-30T16:11:48.696Z,25.89
2022-08-30T16:14:16.374Z,25.86
2022-08-30T16:16:43.706Z,25.79
2022-08-30T16:19:10.885Z,25.75
2022-08-30T16:21:39.697Z,25.68
2022-08-30T16:24:10.429Z,25.64
2022-08-30T16:26:37.835Z,25.56
2022-08-30T16:29:07.515Z,25.51
2022-08-30T16:31:36.746Z,25.45
2022-08-30T16:34:05.142Z,25.40
2022-08-30T16:36:36.185Z,25.34
2022-08-30T16:39:08.343Z,25.32
2022-08-30T16:41:37.212Z,25.27
2022-08-30T16:44:05.587Z,25.21
2022-08-30T16:46:36.659Z,25.18
2022-08-30T16:49:05.546Z,25.14
2022-08-30T16:51:37.820Z,25.12
2022-08-30T16:54:07.702Z,25.08
2022-08-30T16:56:36.402Z,25.04
2022-08-30T16:59:07.025Z,24.98
2022-08-30T17:01:38.288Z,24.96
2022-08-30T17:04:06.838Z,24.88
2022-08-30T17:06:35.739Z,24.83
2022-08-30T17:09:05.970Z,24.82
2022-08-30T17:11:34.878Z,24.79
2022-08-30T17:14:02.265Z,24.74
2022-08-30T17:16:41.248Z,24.72
2022-08-30T17:19:08.717Z,24.70
2022-08-30T17:21:38.848Z,24.66
2022-08-30T17:24:06.845Z,24.61
2022-08-30T17:26:38.762Z,24.57
2022-08-30T17:29:08.826Z,24.50
2022-08-30T17:31:36.246Z,24.49
2022-08-30T17:34:05.856Z,24.45
2022-08-30T17:36:36.380Z,24.37
2022-08-30T17:39:10.882Z,24.34
2022-08-30T17:41:43.384Z,24.31
2022-08-30T17:44:25.916Z,24.29
2022-08-30T17:46:53.859Z,24.23
2022-08-30T17:49:34.298Z,24.20
2022-08-30T17:52:01.613Z,24.22
2022-08-30T17:54:30.327Z,24.21
2022-08-30T17:57:02.361Z,24.19
2022-08-30T17:59:37.717Z,24.07
2022-08-30T18:02:16.982Z,24.06
2022-08-30T18:04:50.851Z,23.97
2022-08-30T18:07:17.892Z,24.06
2022-08-30T18:09:49.988Z,24.05
2022-08-30T18:12:26.893Z,24.10
2022-08-30T18:14:57.463Z,24.18
2022-08-30T18:17:24.685Z,24.20
2022-08-30T18:22:44.527Z,24.14
2022-08-30T18:25:14.080Z,24.11
2022-08-30T18:27:48.093Z,24.12
2022-08-30T18:30:34.079Z,24.11
2022-08-30T18:33:04.812Z,24.05
2022-08-30T18:35:33.746Z,24.05
2022-08-30T18:38:23.819Z,24.03
2022-08-30T18:40:53.349Z,24.00
2022-08-30T18:43:22.928Z,23.96
2022-08-30T18:46:01.230Z,23.89
2022-08-30T18:48:28.374Z,23.88
2022-08-30T18:50:55.503Z,23.84
2022-08-30T18:53:28.521Z,23.81
2022-08-30T18:55:57.762Z,23.75
2022-08-30T18:58:24.845Z,23.73
2022-08-30T19:00:54.819Z,23.71
2022-08-30T19:03:48.985Z,23.69
2022-08-30T19:06:19.365Z,23.53
2022-08-30T19:08:46.552Z,23.48
2022-08-30T19:11:19.267Z,23.54
2022-08-30T19:13:46.495Z,23.45
2022-08-30T19:16:13.646Z,23.44
2022-08-30T19:18:41.273Z,23.47
2022-08-30T19:21:13.747Z,23.46
2022-08-30T19:23:41.486Z,23.39
2022-08-30T19:26:10.950Z,23.37
2022-08-30T19:28:50.913Z,23.36
2022-08-30T19:31:18.030Z,23.32
2022-08-30T19:33:45.041Z,23.32
2022-08-30T19:36:14.906Z,23.28
2022-08-30T19:38:44.639Z,23.35
2022-08-30T19:41:13.191Z,23.31
2022-08-30T19:43:40.551Z,23.33
2022-08-30T19:46:08.167Z,23.31
2022-08-30T19:48:42.213Z,23.28
2022-08-30T19:51:12.138Z,23.24
2022-08-30T19:53:42.189Z,23.21
2022-08-30T19:56:09.322Z,23.18
2022-08-30T19:58:45.509Z,23.15
2022-08-30T20:01:33.142Z,23.13
2022-08-30T20:04:02.368Z,23.09
2022-08-30T20:06:30.527Z,23.06
2022-08-30T20:08:59.860Z,23.00
2022-08-30T20:11:28.693Z,22.99
2022-08-30T20:13:57.779Z,22.99
2022-08-30T20:16:28.323Z,22.98
2022-08-30T20:19:05.563Z,22.93
2022-08-30T20:22:05.569Z,22.91
2022-08-30T20:24:47.760Z,22.89
2022-08-30T20:27:15.128Z,22.89
2022-08-30T20:29:45.497Z,22.87
2022-08-30T20:32:12.895Z,22.83
2022-08-30T20:34:40.747Z,22.83
2022-08-30T20:37:09.893Z,22.79
2022-08-30T20:39:38.106Z,22.80
2022-08-30T20:42:07.115Z,22.79
2022-08-30T20:44:34.083Z,22.78
2022-08-30T20:47:01.145Z,22.77
2022-08-30T20:49:28.165Z,22.77
2022-08-30T20:51:55.267Z,22.75
2022-08-30T20:54:22.823Z,22.71
2022-08-30T20:56:50.345Z,22.65
2022-08-30T20:59:17.831Z,22.64
2022-08-30T21:01:44.884Z,22.60
2022-08-30T21:04:12.327Z,22.59
2022-08-30T21:06:39.364Z,22.54
2022-08-30T21:09:08.297Z,22.49
2022-08-30T21:11:37.042Z,22.48
2022-08-30T21:14:04.841Z,22.45
2022-08-30T21:16:32.049Z,22.43
2022-08-30T21:18:59.259Z,22.43
2022-08-30T21:21:28.038Z,22.39
2022-08-30T21:24:00.574Z,22.40
2022-08-30T21:26:27.816Z,22.35
2022-08-30T21:28:57.639Z,22.41
2022-08-30T21:31:27.472Z,22.41
2022-08-30T21:33:57.179Z,22.44
2022-08-30T21:36:44.679Z,22.48
2022-08-30T21:39:13.670Z,22.51
2022-08-30T21:41:40.936Z,22.52
2022-08-30T21:44:11.648Z,22.52
2022-08-30T21:46:41.455Z,22.51
2022-08-30T21:49:13.375Z,22.51
2022-08-30T21:51:43.173Z,22.49
2022-08-30T21:54:12.572Z,22.50
2022-08-30T21:56:42.021Z,22.49
2022-08-30T21:59:12.308Z,22.50
2022-08-30T22:01:43.779Z,22.51
2022-08-30T22:04:11.702Z,22.52
2022-08-30T22:06:40.317Z,22.51
2022-08-30T22:09:10.580Z,22.50
2022-08-30T22:11:37.909Z,22.53
2022-08-30T22:14:06.688Z,22.50
2022-08-30T22:16:35.540Z,22.48
2022-08-30T22:19:03.715Z,22.47
2022-08-30T22:21:34.378Z,22.47
2022-08-30T22:24:01.452Z,22.42
2022-08-30T22:26:28.701Z,22.35
2022-08-30T22:28:56.264Z,22.34
2022-08-30T22:31:24.670Z,22.31
2022-08-30T22:33:52.926Z,22.26
2022-08-30T22:36:32.267Z,22.24
2022-08-30T22:39:01.609Z,22.21
2022-08-30T22:41:31.470Z,22.16
2022-08-30T22:43:59.008Z,22.08
2022-08-30T22:46:33.954Z,22.03
2022-08-30T22:49:08.276Z,21.96
2022-08-30T22:51:36.542Z,21.89
2022-08-30T22:54:05.883Z,21.83
2022-08-30T22:56:34.972Z,21.75
2022-08-30T22:59:02.579Z,21.72
2022-08-30T23:01:35.435Z,21.68
2022-08-30T23:04:04.057Z,21.60
2022-08-30T23:06:33.593Z,21.56
2022-08-30T23:09:00.810Z,21.51
2022-08-30T23:11:28.089Z,21.46
2022-08-30T23:13:57.779Z,21.40
2022-08-30T23:16:24.883Z,21.38
2022-08-30T23:18:52.056Z,21.36
2022-08-30T23:21:22.925Z,21.31
2022-08-30T23:24:10.239Z,21.30
2022-08-30T23:26:56.854Z,21.26
2022-08-30T23:29:42.834Z,21.20
2022-08-30T23:32:28.454Z,21.17
2022-08-30T23:35:14.451Z,21.13
2022-08-30T23:38:00.439Z,21.10
2022-08-30T23:40:46.203Z,21.06
2022-08-30T23:43:32.099Z,21.01
2022-08-30T23:46:19.362Z,20.94
2022-08-30T23:49:07.211Z,20.85
2022-08-30T23:51:54.875Z,20.78
2022-08-30T23:54:40.934Z,20.71
2022-08-30T23:57:26.556Z,20.58
